Merced Regional Macready Field
KMCE : rendu visible

Aérodrome :











RETROUVEZ-NOUS SUR...

 
LOGIN :

S'inscrire | Disclaimer

   EN    FR    IT 

 









Légende :    VFR   VFR Marginal   IFR   IFR Intensif   IFR Très Intensif
Visi : 
Plafond : 
>= 8 km
>= 3000ft
5 à 8 km
1000 à 3000 ft
1500m à 5 km
500 à 1000 ft
800 à 1500m
200 à 500 ft
< 800m
< 200 ft
Symboles :   Orages  Brouillard  Fortes neiges  Fortes précipitations  Vent > 20 kt






- Altitude de l'aérodrome : 155 ft
- Code IATA : MCE


KMCE - Merced Regional Macready Field

DERNIER METAR :
  • 081253Z AUTO 00000KT 10SM BKN120 11/09 A2994 RMK AO2 SLP138 T01060089

METARs EXPIRÉS :
  • 081153Z AUTO 14004KT 10SM BKN120 10/08 A2994 RMK AO2 SLP139 60002 70002 T01000083 10133 20100 56010
  • 081053Z AUTO 12007KT 10SM SCT075 BKN090 OVC110 11/09 A2995 RMK AO2 RAB0957E37 SLP140 P0001 T01110089
  • 080953Z AUTO 06004KT 10SM FEW050 BKN070 OVC110 12/09 A2996 RMK AO2 RAB07E48 SLP145 P0001 T01170089

TAF KMCE
Valide du 08 à 12h jusqu'au 09 à 12h UTC


081120Z 0812/0912 09006KT P6SM BKN070
FM081800 22006KT P6SM BKN060
PROB30 0900/0906 6SM -RA BKN030



MET'MAP, la Météo Aéronautique d'un coup d'oeil ! - Copyright ORBIFLY Décembre 2007 - Disclaimer

ORBIFLY MET'MAP TEAM :

Programmation & Développement : Alexandra Zaïnal
Sur une idée originale de : Baudouin d'Aumeries
Assistance à la programmation : Marc-Olivier Méhu
Soutien technique & logistique : Manuel Goepfert

Contact : metmap@orbifly.com




SOURCES & CREDITS :

   NOAA       Earth
Advisory